createdAt,value
2023-03-19T00:02:24.364Z,2.54
2023-03-19T00:05:25.232Z,2.56
2023-03-19T00:08:25.255Z,2.60
2023-03-19T00:11:26.245Z,2.55
2023-03-19T00:14:26.277Z,2.53
2023-03-19T00:17:27.287Z,2.54
2023-03-19T00:20:28.888Z,2.54
2023-03-19T00:23:30.203Z,2.56
2023-03-19T00:26:32.273Z,2.52
2023-03-19T00:29:33.420Z,2.51
2023-03-19T00:32:34.357Z,2.51
2023-03-19T00:35:36.664Z,2.51
2023-03-19T00:38:38.520Z,2.51
2023-03-19T00:41:43.285Z,2.51
2023-03-19T00:44:44.328Z,2.55
2023-03-19T00:47:48.332Z,2.54
2023-03-19T00:50:49.407Z,2.48
2023-03-19T00:53:51.313Z,2.48
2023-03-19T00:56:51.311Z,2.46
2023-03-19T00:59:52.402Z,2.47
2023-03-19T01:02:54.355Z,2.48
2023-03-19T01:05:54.340Z,2.47
2023-03-19T01:08:55.554Z,2.43
2023-03-19T01:11:55.552Z,2.44
2023-03-19T01:14:58.319Z,2.40
2023-03-19T01:17:58.369Z,2.39
2023-03-19T01:20:59.505Z,2.38
2023-03-19T01:24:03.347Z,2.34
2023-03-19T01:27:07.984Z,2.23
2023-03-19T01:30:09.362Z,2.13
2023-03-19T01:33:33.384Z,2.03
2023-03-19T01:36:41.470Z,1.96
2023-03-19T01:39:43.394Z,1.89
2023-03-19T01:42:43.379Z,1.79
2023-03-19T01:46:11.081Z,1.66
2023-03-19T01:49:21.403Z,1.57
2023-03-19T01:52:37.435Z,1.51
2023-03-19T01:55:58.394Z,1.44
2023-03-19T01:59:14.428Z,1.35
2023-03-19T02:02:46.567Z,1.29
2023-03-19T02:06:17.432Z,1.22
2023-03-19T02:09:17.440Z,1.15
2023-03-19T02:12:17.457Z,1.11
2023-03-19T02:15:23.478Z,1.05
2023-03-19T02:18:24.505Z,0.98
2023-03-19T02:21:29.447Z,0.90
2023-03-19T02:24:36.488Z,0.83
2023-03-19T02:27:39.451Z,0.74
2023-03-19T02:30:42.055Z,0.66
2023-03-19T02:33:42.680Z,0.61
2023-03-19T02:36:43.484Z,0.56
2023-03-19T02:39:45.491Z,0.52
2023-03-19T02:42:45.475Z,0.50
2023-03-19T02:45:46.531Z,0.52
2023-03-19T02:48:48.475Z,0.54
2023-03-19T02:51:52.505Z,0.54
2023-03-19T02:54:52.540Z,0.54
2023-03-19T02:57:56.525Z,0.58
2023-03-19T03:00:57.544Z,0.61
2023-03-19T03:03:57.612Z,0.65
2023-03-19T03:06:57.567Z,0.70
2023-03-19T03:09:58.737Z,0.73
2023-03-19T03:12:58.581Z,0.76
2023-03-19T03:16:00.608Z,0.78
2023-03-19T03:19:00.551Z,0.74
2023-03-19T03:22:00.577Z,0.72
2023-03-19T03:25:00.588Z,0.65
2023-03-19T03:28:09.618Z,0.68
2023-03-19T03:31:12.700Z,0.74
2023-03-19T03:34:14.933Z,0.79
2023-03-19T03:37:15.825Z,0.80
2023-03-19T03:40:21.639Z,0.80
2023-03-19T03:43:25.136Z,0.77
2023-03-19T03:46:25.631Z,0.76
2023-03-19T03:49:26.653Z,0.78
2023-03-19T03:52:26.627Z,0.82
2023-03-19T03:55:30.421Z,0.87
2023-03-19T03:58:31.660Z,0.91
2023-03-19T04:01:31.585Z,0.92
2023-03-19T04:04:31.672Z,0.93
2023-03-19T04:07:31.745Z,0.96
2023-03-19T04:10:35.050Z,0.98
2023-03-19T04:13:37.875Z,1.01
2023-03-19T04:16:38.793Z,1.06
2023-03-19T04:19:38.931Z,1.11
2023-03-19T04:22:39.668Z,1.15
2023-03-19T04:25:40.755Z,1.22
2023-03-19T04:28:44.671Z,1.46
2023-03-19T04:31:44.903Z,1.85
2023-03-19T04:34:44.766Z,2.18
2023-03-19T04:37:44.721Z,2.28
2023-03-19T04:40:44.672Z,2.18
2023-03-19T04:43:46.413Z,1.95
2023-03-19T04:46:46.660Z,1.78
2023-03-19T04:49:47.959Z,1.68
2023-03-19T04:52:48.778Z,1.63
2023-03-19T04:55:51.761Z,1.61
2023-03-19T04:58:52.701Z,1.58
2023-03-19T05:01:53.710Z,1.61
2023-03-19T05:04:53.722Z,1.65
2023-03-19T05:07:55.746Z,1.68
2023-03-19T05:10:55.756Z,1.71
2023-03-19T05:14:03.747Z,1.74
2023-03-19T05:17:33.851Z,1.80
2023-03-19T05:20:44.813Z,1.83
2023-03-19T05:23:46.756Z,1.89
2023-03-19T05:26:47.731Z,1.96
2023-03-19T05:30:16.830Z,2.04
2023-03-19T05:33:32.787Z,2.12
2023-03-19T05:36:32.791Z,2.19
2023-03-19T05:39:41.835Z,2.28
2023-03-19T05:42:42.839Z,2.40
2023-03-19T05:45:46.813Z,2.49
2023-03-19T05:48:52.467Z,2.56
2023-03-19T05:51:55.885Z,2.65
2023-03-19T05:54:57.795Z,2.75
2023-03-19T05:58:14.830Z,2.84
2023-03-19T06:01:14.867Z,2.94
2023-03-19T06:04:15.855Z,3.05
2023-03-19T06:07:16.856Z,3.14
2023-03-19T06:10:16.803Z,3.21
2023-03-19T06:13:20.821Z,3.28
2023-03-19T06:16:31.892Z,3.38
2023-03-19T06:19:38.566Z,3.45
2023-03-19T06:22:39.907Z,3.48
2023-03-19T06:25:39.867Z,3.53
2023-03-19T06:28:41.839Z,3.67
2023-03-19T06:31:44.962Z,3.83
2023-03-19T06:34:49.081Z,4.03
2023-03-19T06:37:52.302Z,4.18
2023-03-19T06:40:52.922Z,4.28
2023-03-19T06:43:52.878Z,4.43
2023-03-19T06:46:56.908Z,4.56
2023-03-19T06:49:59.966Z,4.68
2023-03-19T06:53:01.956Z,4.79
2023-03-19T06:56:04.912Z,5.02
2023-03-19T06:59:06.943Z,5.27
2023-03-19T07:02:10.014Z,5.57
2023-03-19T07:05:09.957Z,5.83
2023-03-19T07:08:18.096Z,6.05
2023-03-19T07:11:17.964Z,6.31
2023-03-19T07:14:25.202Z,6.50
2023-03-19T07:17:27.491Z,6.79
2023-03-19T07:20:36.497Z,7.04
2023-03-19T07:23:38.937Z,7.11
2023-03-19T07:26:40.018Z,7.09
2023-03-19T07:29:40.976Z,6.99
2023-03-19T07:32:45.036Z,6.86
2023-03-19T07:35:46.292Z,6.70
2023-03-19T07:38:49.780Z,6.51
2023-03-19T07:41:54.975Z,6.38
2023-03-19T07:44:57.033Z,6.30
2023-03-19T07:47:57.992Z,6.25
2023-03-19T07:50:58.111Z,6.25
2023-03-19T07:54:00.028Z,6.23
2023-03-19T07:57:02.960Z,6.24
2023-03-19T08:00:04.025Z,6.17
2023-03-19T08:03:13.216Z,6.20
2023-03-19T08:06:13.020Z,6.25
2023-03-19T08:09:27.582Z,6.38
2023-03-19T08:12:40.978Z,6.48
2023-03-19T08:15:48.583Z,6.62
2023-03-19T08:18:54.407Z,6.75
2023-03-19T08:21:57.506Z,6.85
2023-03-19T08:25:04.217Z,6.96
2023-03-19T08:28:15.893Z,7.15
2023-03-19T08:31:26.130Z,7.39
2023-03-19T08:34:40.614Z,7.74
2023-03-19T08:37:46.379Z,7.96
2023-03-19T08:40:47.444Z,7.98
2023-03-19T08:43:51.179Z,8.09
2023-03-19T08:46:55.267Z,8.21
2023-03-19T08:49:59.589Z,8.31
2023-03-19T08:53:03.575Z,8.48
2023-03-19T08:56:05.131Z,8.71
2023-03-19T08:59:09.704Z,9.06
2023-03-19T09:02:11.178Z,9.47
2023-03-19T09:05:13.352Z,10.14
2023-03-19T09:08:33.158Z,10.93
2023-03-19T09:11:37.208Z,11.38
2023-03-19T09:14:38.211Z,11.52
2023-03-19T09:17:43.452Z,11.53
2023-03-19T09:20:48.524Z,11.87
2023-03-19T09:24:06.161Z,12.25
2023-03-19T09:27:09.125Z,12.16
2023-03-19T09:30:10.326Z,11.98
2023-03-19T09:33:19.620Z,11.73
2023-03-19T09:36:28.791Z,11.34
2023-03-19T09:39:57.122Z,11.23
2023-03-19T09:43:24.420Z,11.43
2023-03-19T09:46:34.060Z,11.46
2023-03-19T09:49:48.720Z,11.42
2023-03-19T09:53:01.466Z,12.29
2023-03-19T09:56:13.278Z,13.04
2023-03-19T09:59:29.357Z,13.97
2023-03-19T10:02:50.384Z,14.18
2023-03-19T10:05:56.403Z,14.32
2023-03-19T10:09:16.251Z,14.42
2023-03-19T10:12:34.445Z,14.12
2023-03-19T10:15:45.249Z,14.00
2023-03-19T10:18:49.392Z,13.79
2023-03-19T10:22:15.268Z,13.54
2023-03-19T10:25:20.145Z,13.49
2023-03-19T10:28:51.905Z,13.96
2023-03-19T10:32:13.341Z,14.38
2023-03-19T10:35:14.299Z,14.75
2023-03-19T10:38:33.317Z,15.05
2023-03-19T10:41:42.353Z,15.02
2023-03-19T10:44:48.339Z,14.99
2023-03-19T10:47:51.375Z,15.18
2023-03-19T10:50:51.556Z,15.66
2023-03-19T10:53:53.368Z,16.13
2023-03-19T10:56:57.766Z,16.50
2023-03-19T11:00:02.034Z,16.69
2023-03-19T11:03:05.424Z,17.10
2023-03-19T11:06:14.348Z,17.42
2023-03-19T11:09:19.380Z,17.63
2023-03-19T11:12:21.758Z,17.67
2023-03-19T11:15:42.537Z,18.01
2023-03-19T11:18:44.506Z,18.35
2023-03-19T11:21:57.369Z,18.15
2023-03-19T11:25:09.439Z,17.93
2023-03-19T11:28:28.404Z,17.90
2023-03-19T11:31:34.814Z,17.79
2023-03-19T11:34:55.434Z,17.15
2023-03-19T11:38:00.646Z,17.39
2023-03-19T11:41:04.558Z,17.75
2023-03-19T11:44:12.431Z,18.11
2023-03-19T11:47:27.428Z,18.39
2023-03-19T11:50:40.575Z,18.69
2023-03-19T11:53:49.471Z,18.56
2023-03-19T11:57:02.137Z,18.44
2023-03-19T12:00:20.640Z,18.10
2023-03-19T12:03:50.486Z,18.14
2023-03-19T12:07:03.876Z,18.16
2023-03-19T12:10:09.810Z,18.23
2023-03-19T12:13:15.761Z,18.35
2023-03-19T12:16:52.497Z,18.70
2023-03-19T12:20:34.121Z,18.83
2023-03-19T12:24:07.823Z,18.91
2023-03-19T12:27:34.677Z,18.90
2023-03-19T12:31:03.054Z,18.31
2023-03-19T12:34:23.169Z,17.94
2023-03-19T12:37:29.943Z,17.84
2023-03-19T12:40:57.669Z,17.79
2023-03-19T12:44:07.868Z,17.60
2023-03-19T12:50:45.835Z,17.52
2023-03-19T12:54:07.914Z,17.29
2023-03-19T13:01:19.757Z,17.59
2023-03-19T13:04:39.812Z,17.53
2023-03-19T13:07:56.080Z,17.55
2023-03-19T13:11:03.193Z,17.33
2023-03-19T13:14:12.740Z,16.72
2023-03-19T13:17:21.226Z,16.68
2023-03-19T13:20:36.037Z,16.58
2023-03-19T13:23:42.504Z,16.55
2023-03-19T13:26:53.038Z,16.39
2023-03-19T13:30:08.475Z,16.15
2023-03-19T13:33:16.932Z,15.94
2023-03-19T13:36:23.472Z,15.72
2023-03-19T13:39:26.860Z,15.65
2023-03-19T13:42:38.505Z,15.34
2023-03-19T13:45:48.663Z,15.08
2023-03-19T13:48:50.040Z,14.61
2023-03-19T13:52:04.062Z,13.91
2023-03-19T13:55:05.934Z,13.75
2023-03-19T13:58:46.668Z,13.70
2023-03-19T14:01:53.729Z,13.72
2023-03-19T14:05:03.749Z,13.72
2023-03-19T14:08:04.695Z,13.57
2023-03-19T14:11:08.176Z,13.19
2023-03-19T14:14:09.719Z,12.98
2023-03-19T14:17:47.917Z,12.88
2023-03-19T14:21:22.225Z,12.84
2023-03-19T14:25:06.068Z,12.78
2023-03-19T14:28:20.336Z,12.50
2023-03-19T14:31:30.783Z,12.29
2023-03-19T14:34:47.810Z,12.22
2023-03-19T14:37:50.182Z,12.13
2023-03-19T14:40:58.909Z,12.00
2023-03-19T14:44:07.966Z,11.77
2023-03-19T14:47:40.385Z,11.65
2023-03-19T14:51:10.817Z,11.54
2023-03-19T14:54:40.343Z,11.46
2023-03-19T14:57:49.804Z,11.36
2023-03-19T15:01:00.440Z,11.24
2023-03-19T15:04:23.937Z,11.06
2023-03-19T15:07:35.267Z,10.81
2023-03-19T15:10:45.355Z,10.52
2023-03-19T15:13:55.112Z,10.28
2023-03-19T15:17:06.321Z,10.13
2023-03-19T15:20:12.537Z,9.91
2023-03-19T15:23:29.900Z,9.71
2023-03-19T15:26:42.137Z,9.54
2023-03-19T15:29:51.426Z,9.45
2023-03-19T15:33:12.054Z,9.36
2023-03-19T15:40:12.933Z,9.05
2023-03-19T15:43:26.959Z,8.87
2023-03-19T15:46:38.089Z,8.74
2023-03-19T15:53:26.114Z,8.43
2023-03-19T15:56:31.100Z,8.29
2023-03-19T15:59:51.022Z,8.16
2023-03-19T16:03:02.564Z,8.03
2023-03-19T16:14:37.770Z,7.57
2023-03-19T16:18:01.701Z,7.46
2023-03-19T16:21:27.017Z,7.39
2023-03-19T16:24:46.113Z,7.29
2023-03-19T16:27:52.822Z,7.17
2023-03-19T16:31:09.756Z,7.06
2023-03-19T16:34:39.928Z,6.98
2023-03-19T16:37:46.306Z,6.91
2023-03-19T16:40:53.940Z,6.84
2023-03-19T16:44:19.846Z,6.76
2023-03-19T16:47:34.122Z,6.68
2023-03-19T16:50:36.972Z,6.62
2023-03-19T16:53:42.060Z,6.56
2023-03-19T16:56:44.902Z,6.52
2023-03-19T16:59:46.225Z,6.47
2023-03-19T17:02:47.968Z,6.44
2023-03-19T17:05:49.880Z,6.39
2023-03-19T17:08:55.958Z,6.33
2023-03-19T17:11:59.189Z,6.28
2023-03-19T17:15:01.991Z,6.22
2023-03-19T17:18:04.014Z,6.17
2023-03-19T17:21:09.060Z,6.14
2023-03-19T17:24:15.070Z,6.10
2023-03-19T17:27:17.135Z,6.06
2023-03-19T17:30:19.328Z,6.03
2023-03-19T17:33:20.084Z,5.99
2023-03-19T17:36:22.084Z,5.95
2023-03-19T17:39:28.131Z,5.91
2023-03-19T17:42:33.017Z,5.87
2023-03-19T17:45:35.304Z,5.83
2023-03-19T17:48:39.344Z,5.76
2023-03-19T17:51:43.687Z,5.71
2023-03-19T17:54:47.080Z,5.66
2023-03-19T17:57:50.306Z,5.62
2023-03-19T18:00:53.192Z,5.61
2023-03-19T18:03:54.569Z,5.61
2023-03-19T18:06:59.367Z,5.60
2023-03-19T18:10:02.089Z,5.60
2023-03-19T18:13:04.249Z,5.61
2023-03-19T18:16:17.138Z,5.59
2023-03-19T18:19:17.153Z,5.56
2023-03-19T18:22:27.131Z,5.53
2023-03-19T18:25:38.137Z,5.49
2023-03-19T18:28:39.121Z,5.46
2023-03-19T18:31:41.716Z,5.44
2023-03-19T18:34:42.332Z,5.43
2023-03-19T18:37:42.125Z,5.44
2023-03-19T18:40:42.098Z,5.46
2023-03-19T18:43:47.049Z,5.51
2023-03-19T18:46:48.145Z,5.53
2023-03-19T18:49:52.172Z,5.53
2023-03-19T18:52:58.278Z,5.51
2023-03-19T18:56:02.198Z,5.49
2023-03-19T18:59:04.196Z,5.47
2023-03-19T19:02:06.336Z,5.44
2023-03-19T19:05:07.485Z,5.41
2023-03-19T19:08:08.175Z,5.38
2023-03-19T19:11:10.191Z,5.34
2023-03-19T19:14:14.812Z,5.29
2023-03-19T19:17:18.527Z,5.22
2023-03-19T19:20:31.376Z,5.14
2023-03-19T19:23:35.533Z,5.02
2023-03-19T19:26:37.215Z,4.89
2023-03-19T19:29:41.228Z,4.65
2023-03-19T19:32:42.469Z,4.43
2023-03-19T19:35:42.429Z,4.31
2023-03-19T19:38:58.250Z,4.20
2023-03-19T19:41:58.238Z,4.11
2023-03-19T19:45:10.285Z,4.03
2023-03-19T19:48:11.307Z,3.96
2023-03-19T19:51:13.301Z,3.89
2023-03-19T19:54:14.347Z,3.83
2023-03-19T19:57:18.327Z,3.78
2023-03-19T20:00:19.552Z,3.72
2023-03-19T20:03:22.313Z,3.67
2023-03-19T20:06:25.465Z,3.62
2023-03-19T20:09:25.309Z,3.58
2023-03-19T20:12:41.838Z,3.53
2023-03-19T20:15:45.323Z,3.47
2023-03-19T20:18:50.305Z,3.43
2023-03-19T20:21:52.295Z,3.39
2023-03-19T20:24:53.328Z,3.36
2023-03-19T20:27:53.391Z,3.34
2023-03-19T20:30:54.355Z,3.32
2023-03-19T20:34:38.214Z,3.32
2023-03-19T20:37:47.843Z,3.35
2023-03-19T20:40:58.363Z,3.38
2023-03-19T20:43:59.313Z,3.40
2023-03-19T20:47:05.404Z,3.40
2023-03-19T20:50:10.954Z,3.40
2023-03-19T20:53:34.129Z,3.37
2023-03-19T20:56:36.353Z,3.31
2023-03-19T20:59:38.411Z,3.26
2023-03-19T21:02:38.498Z,3.22
2023-03-19T21:05:50.388Z,3.18
2023-03-19T21:08:52.362Z,3.11
2023-03-19T21:11:59.852Z,3.04
2023-03-19T21:15:00.632Z,2.97
2023-03-19T21:18:01.899Z,2.92
2023-03-19T21:21:04.408Z,2.87
2023-03-19T21:24:15.792Z,2.81
2023-03-19T21:27:17.512Z,2.75
2023-03-19T21:30:17.446Z,2.73
2023-03-19T21:33:20.533Z,2.70
2023-03-19T21:36:24.416Z,2.68
2023-03-19T21:39:30.419Z,2.63
2023-03-19T21:42:30.509Z,2.59
2023-03-19T21:45:38.188Z,2.54
2023-03-19T21:48:46.705Z,2.50
2023-03-19T21:51:50.534Z,2.45
2023-03-19T21:54:51.434Z,2.41
2023-03-19T21:57:56.541Z,2.38
2023-03-19T22:00:58.640Z,2.35
2023-03-19T22:03:59.678Z,2.31
2023-03-19T22:06:59.500Z,2.26
2023-03-19T22:10:03.679Z,2.22
2023-03-19T22:13:06.524Z,2.18
2023-03-19T22:16:10.568Z,2.16
2023-03-19T22:19:11.934Z,2.15
2023-03-19T22:22:12.481Z,2.14
2023-03-19T22:25:15.495Z,2.12
2023-03-19T22:28:33.687Z,2.09
2023-03-19T22:31:33.618Z,2.07
2023-03-19T22:34:35.529Z,2.04
2023-03-19T22:37:37.557Z,2.00
2023-03-19T22:40:38.527Z,1.96
2023-03-19T22:43:40.573Z,1.92
2023-03-19T22:46:53.069Z,1.87
2023-03-19T22:49:53.541Z,1.84
2023-03-19T22:52:54.539Z,1.80
2023-03-19T22:55:58.552Z,1.78
2023-03-19T22:58:58.573Z,1.75
2023-03-19T23:01:59.640Z,1.73
2023-03-19T23:05:00.553Z,1.69
2023-03-19T23:08:03.112Z,1.65
2023-03-19T23:11:07.561Z,1.64
2023-03-19T23:14:15.318Z,1.64
2023-03-19T23:17:26.898Z,1.62
2023-03-19T23:20:30.577Z,1.60
2023-03-19T23:23:33.632Z,1.60
2023-03-19T23:26:41.800Z,1.59
2023-03-19T23:29:42.608Z,1.58
2023-03-19T23:32:47.688Z,1.57
2023-03-19T23:35:47.707Z,1.55
2023-03-19T23:38:47.635Z,1.51
2023-03-19T23:41:47.644Z,1.49
2023-03-19T23:44:48.647Z,1.46
2023-03-19T23:47:51.781Z,1.43
2023-03-19T23:50:52.630Z,1.41
2023-03-19T23:53:53.681Z,1.40
2023-03-19T23:56:58.677Z,1.38
2023-03-19T23:59:58.675Z,1.32
